Plymouth, Florida
Current Conditions -  °F | °C
As of 8:53 PM on Friday 19 Dec 2014 (Local Time) from KORL Reporting Station
Clear Clear  
Wind Chill: 59°   Ceiling: Unl
Heat Index: 59°   Visibility: 10mi
Dew Point: 49°   Wind: 5mph
Humidity: 69%   Direction: 100°E
Pressure: 30.09"   Gusts: NA
Location:  28.69°N, 81.55°W
Report Text: KORL 200153Z 10004KT 10SM CLR 15/09 A3009 RMK AO2 SLP194 T01500094
Loading
Personal Weather Stations






























Interactive Weather Map New forecast layout! Learn more

10-Day Weather Forecast

Advertisements
Track Severe Weather on mobile